createdAt,value
2023-12-30T00:00:18.121Z,100294.23
2023-12-30T00:02:49.378Z,100298.16
2023-12-30T00:05:17.758Z,100296.03
2023-12-30T00:07:45.673Z,100302.20
2023-12-30T00:10:13.537Z,100315.34
2023-12-30T00:12:41.186Z,100314.34
2023-12-30T00:15:09.259Z,100313.07
2023-12-30T00:17:37.111Z,100310.62
2023-12-30T00:20:05.443Z,100309.32
2023-12-30T00:22:33.143Z,100305.04
2023-12-30T00:25:00.882Z,100301.17
2023-12-30T00:27:28.443Z,100302.61
2023-12-30T00:29:56.014Z,100296.63
2023-12-30T00:32:23.608Z,100299.79
2023-12-30T00:34:51.235Z,100297.04
2023-12-30T00:37:21.516Z,100294.65
2023-12-30T00:39:49.549Z,100293.53
2023-12-30T00:42:17.286Z,100295.46
2023-12-30T00:44:44.850Z,100296.73
2023-12-30T00:47:12.805Z,100300.23
2023-12-30T00:49:40.579Z,100295.98
2023-12-30T00:52:08.140Z,100297.50
2023-12-30T00:54:41.111Z,100292.05
2023-12-30T00:57:15.288Z,100285.45
2023-12-30T00:59:43.582Z,100289.83
2023-12-30T01:02:11.140Z,100286.26
2023-12-30T01:04:38.785Z,100285.96
2023-12-30T01:07:06.593Z,100284.43
2023-12-30T01:09:34.775Z,100285.67
2023-12-30T01:12:02.407Z,100292.44
2023-12-30T01:14:30.462Z,100287.43
2023-12-30T01:16:58.065Z,100287.64
2023-12-30T01:19:26.209Z,100291.33
2023-12-30T01:21:54.159Z,100289.45
2023-12-30T01:24:21.805Z,100289.63
2023-12-30T01:26:49.794Z,100283.45
2023-12-30T01:29:17.365Z,100291.02
2023-12-30T01:31:44.978Z,100288.86
2023-12-30T01:34:13.092Z,100286.20
2023-12-30T01:36:40.764Z,100284.23
2023-12-30T01:39:08.309Z,100290.84
2023-12-30T01:41:36.333Z,100285.91
2023-12-30T01:44:04.006Z,100277.55
2023-12-30T01:46:31.709Z,100288.34
2023-12-30T01:48:59.709Z,100275.69
2023-12-30T01:51:27.410Z,100284.64
2023-12-30T01:53:54.994Z,100279.60
2023-12-30T01:56:23.046Z,100278.30
2023-12-30T01:58:51.487Z,100276.95
2023-12-30T02:01:19.175Z,100275.48
2023-12-30T02:03:46.814Z,100266.24
2023-12-30T02:06:14.565Z,100274.05
2023-12-30T02:08:42.179Z,100284.37
2023-12-30T02:11:09.774Z,100284.77
2023-12-30T02:13:37.518Z,100288.06
2023-12-30T02:16:05.463Z,100291.46
2023-12-30T02:18:33.977Z,100303.52
2023-12-30T02:21:01.602Z,100300.35
2023-12-30T02:23:29.174Z,100296.30
2023-12-30T02:25:56.795Z,100290.70
2023-12-30T02:28:24.432Z,100285.91
2023-12-30T02:30:52.059Z,100283.24
2023-12-30T02:33:19.977Z,100277.47
2023-12-30T02:35:48.404Z,100277.67
2023-12-30T02:38:15.992Z,100280.69
2023-12-30T02:40:43.519Z,100287.83
2023-12-30T02:43:11.150Z,100289.27
2023-12-30T02:45:38.695Z,100288.91
2023-12-30T02:48:06.801Z,100292.71
2023-12-30T02:50:34.734Z,100293.02
2023-12-30T02:53:03.009Z,100297.09
2023-12-30T02:55:30.760Z,100304.93
2023-12-30T02:57:59.651Z,100304.22
2023-12-30T03:00:28.182Z,100301.13
2023-12-30T03:02:55.749Z,100299.95
2023-12-30T03:05:23.426Z,100299.89
2023-12-30T03:07:51.010Z,100297.61
2023-12-30T03:10:18.700Z,100298.42
2023-12-30T03:12:46.376Z,100297.20
2023-12-30T03:15:14.433Z,100298.77
2023-12-30T03:17:42.712Z,100301.11
2023-12-30T03:20:11.703Z,100304.10
2023-12-30T03:22:39.441Z,100302.98
2023-12-30T03:25:08.085Z,100301.07
2023-12-30T03:27:37.528Z,100306.38
2023-12-30T03:30:05.833Z,100304.80
2023-12-30T03:32:33.847Z,100318.63
2023-12-30T03:35:01.648Z,100321.67
2023-12-30T03:37:29.302Z,100330.84
2023-12-30T03:39:56.886Z,100331.13
2023-12-30T03:42:24.592Z,100331.25
2023-12-30T03:44:52.257Z,100339.52
2023-12-30T03:47:20.210Z,100340.54
2023-12-30T03:49:47.990Z,100346.37
2023-12-30T03:52:15.628Z,100345.75
2023-12-30T03:54:44.748Z,100338.02
2023-12-30T03:57:14.453Z,100335.00
2023-12-30T03:59:42.044Z,100335.69
2023-12-30T04:02:09.627Z,100332.08
2023-12-30T04:04:37.686Z,100324.83
2023-12-30T04:07:05.433Z,100326.43
2023-12-30T04:09:33.005Z,100340.92
2023-12-30T04:12:00.607Z,100340.80
2023-12-30T04:14:28.217Z,100336.50
2023-12-30T04:16:55.955Z,100341.14
2023-12-30T04:19:25.450Z,100345.58
2023-12-30T04:21:53.112Z,100341.30
2023-12-30T04:24:20.691Z,100334.33
2023-12-30T04:26:48.319Z,100332.65
2023-12-30T04:29:15.840Z,100347.50
2023-12-30T04:31:43.486Z,100355.17
2023-12-30T04:34:11.282Z,100359.33
2023-12-30T04:36:39.084Z,100368.58
2023-12-30T04:39:07.250Z,100361.11
2023-12-30T04:41:34.905Z,100360.48
2023-12-30T04:44:02.658Z,100355.81
2023-12-30T04:46:30.202Z,100353.37
2023-12-30T04:48:57.910Z,100353.31
2023-12-30T04:51:25.510Z,100352.61
2023-12-30T04:53:53.061Z,100356.89
2023-12-30T04:56:20.959Z,100354.64
2023-12-30T04:58:48.546Z,100355.89
2023-12-30T05:01:16.491Z,100359.66
2023-12-30T05:03:44.329Z,100366.21
2023-12-30T05:06:22.773Z,100363.71
2023-12-30T05:08:54.311Z,100359.99
2023-12-30T05:11:24.919Z,100368.13
2023-12-30T05:13:52.625Z,100369.22
2023-12-30T05:16:20.259Z,100372.40
2023-12-30T05:18:47.859Z,100378.76
2023-12-30T05:21:16.104Z,100390.11
2023-12-30T05:23:43.983Z,100402.13
2023-12-30T05:26:13.583Z,100400.75
2023-12-30T05:28:41.264Z,100403.68
2023-12-30T05:31:09.108Z,100406.77
2023-12-30T05:33:36.834Z,100407.92
2023-12-30T05:36:04.590Z,100402.73
2023-12-30T05:38:32.168Z,100405.52
2023-12-30T05:40:59.861Z,100404.86
2023-12-30T05:43:27.693Z,100405.80
2023-12-30T05:45:55.462Z,100408.00
2023-12-30T05:48:23.126Z,100408.63
2023-12-30T05:50:50.679Z,100411.39
2023-12-30T05:53:18.267Z,100408.88
2023-12-30T05:55:45.786Z,100412.23
2023-12-30T05:58:13.497Z,100403.44
2023-12-30T06:00:41.239Z,100401.25
2023-12-30T06:03:09.391Z,100403.97
2023-12-30T06:05:37.237Z,100408.98
2023-12-30T06:08:05.533Z,100406.13
2023-12-30T06:10:33.246Z,100406.48
2023-12-30T06:13:01.004Z,100403.84
2023-12-30T06:15:28.777Z,100410.86
2023-12-30T06:17:56.444Z,100408.17
2023-12-30T06:20:24.606Z,100405.29
2023-12-30T06:22:52.273Z,100408.74
2023-12-30T06:25:19.907Z,100413.70
2023-12-30T06:27:47.494Z,100413.51
2023-12-30T06:30:15.485Z,100409.96
2023-12-30T06:32:43.221Z,100418.82
2023-12-30T06:35:10.830Z,100420.38
2023-12-30T06:37:38.652Z,100419.60
2023-12-30T06:40:07.116Z,100416.95
2023-12-30T06:42:34.772Z,100415.69
2023-12-30T06:45:02.331Z,100414.56
2023-12-30T06:47:29.879Z,100420.24
2023-12-30T06:49:57.700Z,100415.98
2023-12-30T06:52:25.387Z,100423.02
2023-12-30T06:55:02.732Z,100418.86
2023-12-30T06:57:38.177Z,100413.52
2023-12-30T07:00:07.161Z,100417.80
2023-12-30T07:02:35.426Z,100420.66
2023-12-30T07:05:03.097Z,100423.80
2023-12-30T07:07:30.692Z,100422.77
2023-12-30T07:09:58.335Z,100419.85
2023-12-30T07:12:25.988Z,100416.98
2023-12-30T07:14:53.532Z,100418.73
2023-12-30T07:17:21.209Z,100414.18
2023-12-30T07:19:48.933Z,100410.52
2023-12-30T07:22:20.392Z,100413.04
2023-12-30T07:24:50.958Z,100420.56
2023-12-30T07:27:18.619Z,100416.30
2023-12-30T07:29:46.172Z,100408.08
2023-12-30T07:32:13.812Z,100404.14
2023-12-30T07:34:41.548Z,100394.89
2023-12-30T07:37:09.173Z,100380.67
2023-12-30T07:39:36.817Z,100372.20
2023-12-30T07:42:05.353Z,100361.66
2023-12-30T07:44:38.794Z,100350.14
2023-12-30T07:47:08.320Z,100339.16
2023-12-30T07:49:36.822Z,100333.63
2023-12-30T07:52:05.025Z,100324.26
2023-12-30T07:54:32.620Z,100320.04
2023-12-30T07:57:00.171Z,100315.70
2023-12-30T07:59:27.801Z,100311.59
2023-12-30T08:01:57.770Z,100299.02
2023-12-30T08:04:25.944Z,100297.34
2023-12-30T08:06:54.452Z,100287.96
2023-12-30T08:09:24.237Z,100279.98
2023-12-30T08:11:59.371Z,100275.98
2023-12-30T08:14:30.657Z,100269.46
2023-12-30T08:17:00.212Z,100264.04
2023-12-30T08:19:28.060Z,100259.39
2023-12-30T08:21:55.841Z,100252.02
2023-12-30T08:24:23.432Z,100254.52
2023-12-30T08:26:50.987Z,100257.52
2023-12-30T08:29:18.585Z,100258.33
2023-12-30T08:31:49.318Z,100252.46
2023-12-30T08:34:17.085Z,100251.35
2023-12-30T08:36:45.513Z,100253.37
2023-12-30T08:39:13.862Z,100256.85
2023-12-30T08:41:42.319Z,100257.05
2023-12-30T08:44:10.227Z,100250.48
2023-12-30T08:46:38.001Z,100249.27
2023-12-30T08:49:08.534Z,100247.06
2023-12-30T08:51:38.265Z,100246.05
2023-12-30T08:54:05.837Z,100241.90
2023-12-30T08:56:35.001Z,100237.95
2023-12-30T08:59:03.171Z,100236.61
2023-12-30T09:01:31.823Z,100241.80
2023-12-30T09:04:01.433Z,100236.73
2023-12-30T09:06:29.413Z,100232.83
2023-12-30T09:08:57.723Z,100235.52
2023-12-30T09:11:25.426Z,100236.84
2023-12-30T09:13:53.535Z,100238.56
2023-12-30T09:16:21.338Z,100241.86
2023-12-30T09:18:49.181Z,100244.66
2023-12-30T09:21:17.053Z,100241.41
2023-12-30T09:23:44.610Z,100243.98
2023-12-30T09:26:14.036Z,100244.04
2023-12-30T09:28:41.865Z,100247.32
2023-12-30T09:31:09.841Z,100247.82
2023-12-30T09:33:37.583Z,100249.86
2023-12-30T09:36:06.143Z,100246.95
2023-12-30T09:38:33.685Z,100249.94
2023-12-30T09:41:01.263Z,100252.46
2023-12-30T09:43:29.150Z,100252.47
2023-12-30T09:45:59.200Z,100255.39
2023-12-30T09:48:28.887Z,100251.39
2023-12-30T09:50:57.600Z,100253.89
2023-12-30T09:53:26.241Z,100253.99
2023-12-30T09:55:54.479Z,100254.29
2023-12-30T09:58:22.778Z,100249.42
2023-12-30T10:00:50.494Z,100246.27
2023-12-30T10:03:19.780Z,100247.89
2023-12-30T10:05:48.589Z,100248.38
2023-12-30T10:08:16.666Z,100249.48
2023-12-30T10:10:46.484Z,100247.83
2023-12-30T10:13:15.447Z,100244.44
2023-12-30T10:15:43.604Z,100237.48
2023-12-30T10:18:11.833Z,100237.23
2023-12-30T10:20:43.474Z,100236.83
2023-12-30T10:23:11.183Z,100240.83
2023-12-30T10:25:39.257Z,100236.89
2023-12-30T10:28:07.203Z,100232.89
2023-12-30T10:30:34.806Z,100232.78
2023-12-30T10:33:13.161Z,100229.80
2023-12-30T10:35:41.883Z,100227.75
2023-12-30T10:38:10.143Z,100226.05
2023-12-30T10:40:39.580Z,100223.55
2023-12-30T10:43:07.961Z,100221.96
2023-12-30T10:45:35.815Z,100225.40
2023-12-30T10:48:03.666Z,100229.48
2023-12-30T10:50:32.037Z,100223.46
2023-12-30T10:53:24.609Z,100218.91
2023-12-30T10:55:54.431Z,100218.86
2023-12-30T10:58:24.086Z,100211.61
2023-12-30T11:00:59.040Z,100209.27
2023-12-30T11:03:26.928Z,100207.94
2023-12-30T11:06:00.787Z,100205.23
2023-12-30T11:08:29.110Z,100201.88
2023-12-30T11:10:59.535Z,100195.42
2023-12-30T11:13:27.142Z,100198.61
2023-12-30T11:15:56.082Z,100198.66
2023-12-30T11:18:45.757Z,100199.55
2023-12-30T11:21:13.643Z,100191.88
2023-12-30T11:23:41.239Z,100191.39
2023-12-30T11:26:08.861Z,100193.57
2023-12-30T11:28:38.657Z,100191.29
2023-12-30T11:31:06.374Z,100191.02
2023-12-30T11:33:34.094Z,100194.95
2023-12-30T11:36:01.726Z,100195.27
2023-12-30T11:38:32.577Z,100193.74
2023-12-30T11:41:02.561Z,100194.40
2023-12-30T11:43:30.410Z,100198.98
2023-12-30T11:45:58.157Z,100198.48
2023-12-30T11:48:25.888Z,100198.44
2023-12-30T11:50:55.427Z,100190.45
2023-12-30T11:53:23.149Z,100186.69
2023-12-30T11:55:50.817Z,100184.98
2023-12-30T11:58:18.535Z,100187.24
2023-12-30T12:00:46.148Z,100193.77
2023-12-30T12:03:13.740Z,100185.54
2023-12-30T12:05:41.347Z,100185.50
2023-12-30T12:08:12.620Z,100188.12
2023-12-30T12:10:40.409Z,100182.06
2023-12-30T12:13:10.866Z,100182.13
2023-12-30T12:15:40.395Z,100184.98
2023-12-30T12:18:09.274Z,100186.90
2023-12-30T12:20:42.106Z,100185.91
2023-12-30T12:23:10.196Z,100186.67
2023-12-30T12:25:37.850Z,100193.80
2023-12-30T12:28:12.186Z,100198.02
2023-12-30T12:30:40.499Z,100199.42
2023-12-30T12:33:08.934Z,100197.20
2023-12-30T12:35:36.705Z,100200.85
2023-12-30T12:38:04.627Z,100202.00
2023-12-30T12:40:33.546Z,100202.36
2023-12-30T12:43:01.349Z,100204.76
2023-12-30T12:45:30.965Z,100199.81
2023-12-30T12:47:58.997Z,100198.64
2023-12-30T12:50:26.956Z,100199.84
2023-12-30T12:52:54.508Z,100196.36
2023-12-30T12:55:22.101Z,100191.58
2023-12-30T12:57:49.721Z,100192.45
2023-12-30T13:00:19.470Z,100190.29
2023-12-30T13:02:47.105Z,100192.48
2023-12-30T13:05:18.792Z,100197.14
2023-12-30T13:07:47.784Z,100201.58
2023-12-30T13:10:33.711Z,100203.02
2023-12-30T13:13:02.230Z,100206.80
2023-12-30T13:15:30.833Z,100206.55
2023-12-30T13:18:00.901Z,100199.95
2023-12-30T13:20:28.767Z,100200.55
2023-12-30T13:22:59.239Z,100198.23
2023-12-30T13:25:31.252Z,100197.66
2023-12-30T13:27:59.381Z,100196.11
2023-12-30T13:30:27.219Z,100189.98
2023-12-30T13:32:59.033Z,100195.95
2023-12-30T13:35:30.625Z,100196.00
2023-12-30T13:37:58.164Z,100198.45
2023-12-30T13:40:26.430Z,100198.89
2023-12-30T13:42:55.988Z,100202.30
2023-12-30T13:45:24.036Z,100203.42
2023-12-30T13:47:51.729Z,100200.73
2023-12-30T13:50:21.546Z,100200.14
2023-12-30T13:52:51.870Z,100202.41
2023-12-30T13:55:20.298Z,100204.50
2023-12-30T13:57:53.967Z,100204.73
2023-12-30T14:00:22.819Z,100207.66
2023-12-30T14:02:54.152Z,100206.30
2023-12-30T14:05:31.477Z,100210.13
2023-12-30T14:08:16.053Z,100210.83
2023-12-30T14:10:50.396Z,100213.83
2023-12-30T14:13:20.048Z,100213.26
2023-12-30T14:15:51.155Z,100213.77
2023-12-30T14:18:18.926Z,100211.23
2023-12-30T14:20:47.300Z,100216.09
2023-12-30T14:23:15.034Z,100217.57
2023-12-30T14:25:42.874Z,100216.19
2023-12-30T14:28:11.357Z,100223.42
2023-12-30T14:30:40.331Z,100225.12
2023-12-30T14:33:08.988Z,100224.53
2023-12-30T14:35:37.356Z,100225.00
2023-12-30T14:38:06.093Z,100226.79
2023-12-30T14:40:33.669Z,100226.02
2023-12-30T14:43:01.536Z,100228.92
2023-12-30T14:45:29.964Z,100229.58
2023-12-30T14:47:58.010Z,100230.67
2023-12-30T14:50:25.568Z,100227.12
2023-12-30T14:52:53.301Z,100227.27
2023-12-30T14:55:20.844Z,100229.36
2023-12-30T14:57:50.256Z,100230.61
2023-12-30T15:00:18.797Z,100235.27
2023-12-30T15:02:46.590Z,100234.31
2023-12-30T15:05:17.416Z,100236.15
2023-12-30T15:07:45.833Z,100232.97
2023-12-30T15:10:15.759Z,100232.35
2023-12-30T15:12:45.804Z,100231.80
2023-12-30T15:15:13.991Z,100233.68
2023-12-30T15:17:41.629Z,100235.30
2023-12-30T15:20:09.808Z,100231.27
2023-12-30T15:22:39.066Z,100234.37
2023-12-30T15:25:07.295Z,100232.27
2023-12-30T15:27:34.893Z,100231.80
2023-12-30T15:30:02.438Z,100224.27
2023-12-30T15:32:30.556Z,100224.92
2023-12-30T15:34:59.543Z,100225.11
2023-12-30T15:37:27.468Z,100222.54
2023-12-30T15:39:55.107Z,100222.88
2023-12-30T15:42:22.694Z,100222.81
2023-12-30T15:44:50.250Z,100218.04
2023-12-30T15:47:17.948Z,100214.49
2023-12-30T15:49:45.621Z,100213.94
2023-12-30T15:52:13.601Z,100207.33
2023-12-30T15:54:41.159Z,100211.06
2023-12-30T15:57:08.802Z,100213.66
2023-12-30T15:59:36.397Z,100214.34
2023-12-30T16:02:04.238Z,100216.81
2023-12-30T16:04:31.921Z,100217.79
2023-12-30T16:06:59.596Z,100213.80
2023-12-30T16:09:27.169Z,100208.33
2023-12-30T16:11:54.967Z,100207.20
2023-12-30T16:14:22.521Z,100202.77
2023-12-30T16:16:50.104Z,100201.20
2023-12-30T16:19:19.108Z,100195.30
2023-12-30T16:21:49.035Z,100190.53
2023-12-30T16:24:18.503Z,100183.30
2023-12-30T16:26:46.237Z,100179.04
2023-12-30T16:29:13.951Z,100175.62
2023-12-30T16:31:41.511Z,100167.74
2023-12-30T16:34:09.343Z,100167.55
2023-12-30T16:36:37.144Z,100166.17
2023-12-30T16:39:04.997Z,100166.09
2023-12-30T16:41:32.616Z,100168.73
2023-12-30T16:44:00.719Z,100168.74
2023-12-30T16:46:28.264Z,100175.17
2023-12-30T16:48:55.901Z,100175.52
2023-12-30T16:51:23.504Z,100174.14
2023-12-30T16:53:51.190Z,100166.72
2023-12-30T16:56:19.640Z,100168.31
2023-12-30T16:58:47.483Z,100164.67
2023-12-30T17:01:15.498Z,100161.88
2023-12-30T17:03:43.902Z,100160.60
2023-12-30T17:06:12.299Z,100163.91
2023-12-30T17:08:39.816Z,100165.48
2023-12-30T17:11:07.425Z,100164.54
2023-12-30T17:13:39.603Z,100162.14
2023-12-30T17:16:14.078Z,100164.46
2023-12-30T17:18:41.788Z,100163.45
2023-12-30T17:21:09.411Z,100164.85
2023-12-30T17:23:37.129Z,100164.60
2023-12-30T17:26:05.199Z,100165.15
2023-12-30T17:28:32.928Z,100162.20
2023-12-30T17:31:01.350Z,100155.84
2023-12-30T17:33:29.092Z,100159.48
2023-12-30T17:35:56.637Z,100155.27
2023-12-30T17:38:24.461Z,100158.17
2023-12-30T17:40:52.134Z,100162.07
2023-12-30T17:43:19.850Z,100161.95
2023-12-30T17:45:47.560Z,100155.67
2023-12-30T17:48:16.030Z,100154.02
2023-12-30T17:50:46.474Z,100152.29
2023-12-30T17:53:14.323Z,100150.25
2023-12-30T17:55:42.268Z,100141.35
2023-12-30T17:58:10.075Z,100140.27
2023-12-30T18:00:37.827Z,100138.75
2023-12-30T18:03:07.684Z,100135.13
2023-12-30T18:05:35.473Z,100134.14
2023-12-30T18:08:03.177Z,100134.89
2023-12-30T18:10:30.938Z,100133.89
2023-12-30T18:12:58.490Z,100134.17
2023-12-30T18:15:26.839Z,100145.72
2023-12-30T18:17:54.538Z,100144.52
2023-12-30T18:20:25.787Z,100144.80
2023-12-30T18:22:53.567Z,100136.25
2023-12-30T18:25:21.183Z,100135.98
2023-12-30T18:27:48.730Z,100140.08
2023-12-30T18:30:16.630Z,100143.19
2023-12-30T18:32:44.406Z,100146.60
2023-12-30T18:35:12.559Z,100143.77
2023-12-30T18:37:41.476Z,100139.07
2023-12-30T18:40:12.173Z,100131.99
2023-12-30T18:42:40.358Z,100128.57
2023-12-30T18:45:08.742Z,100125.96
2023-12-30T18:47:36.469Z,100122.02
2023-12-30T18:50:05.154Z,100120.69
2023-12-30T18:52:33.215Z,100128.11
2023-12-30T18:55:01.078Z,100130.48
2023-12-30T18:57:28.876Z,100128.09
2023-12-30T18:59:57.331Z,100134.48
2023-12-30T19:02:24.945Z,100132.01
2023-12-30T19:04:52.638Z,100128.77
2023-12-30T19:07:20.480Z,100129.23
2023-12-30T19:09:48.532Z,100134.03
2023-12-30T19:12:16.268Z,100135.54
2023-12-30T19:14:43.994Z,100130.76
2023-12-30T19:17:11.844Z,100127.51
2023-12-30T19:19:40.041Z,100133.41
2023-12-30T19:22:08.749Z,100137.70
2023-12-30T19:24:37.979Z,100140.05
2023-12-30T19:27:06.026Z,100139.05
2023-12-30T19:29:33.660Z,100135.64
2023-12-30T19:32:01.310Z,100133.84
2023-12-30T19:34:29.278Z,100130.60
2023-12-30T19:36:57.360Z,100124.13
2023-12-30T19:39:25.152Z,100119.93
2023-12-30T19:41:52.729Z,100113.31
2023-12-30T19:44:20.738Z,100114.98
2023-12-30T19:46:48.805Z,100118.27
2023-12-30T19:49:17.054Z,100116.27
2023-12-30T19:51:45.223Z,100112.48
2023-12-30T19:54:13.562Z,100119.48
2023-12-30T19:56:41.661Z,100117.44
2023-12-30T19:59:10.305Z,100112.81
2023-12-30T20:01:38.055Z,100113.02
2023-12-30T20:04:05.854Z,100109.77
2023-12-30T20:06:34.649Z,100106.66
2023-12-30T20:09:02.246Z,100105.27
2023-12-30T20:11:29.903Z,100098.40
2023-12-30T20:13:57.583Z,100097.14
2023-12-30T20:16:25.319Z,100098.48
2023-12-30T20:18:53.146Z,100099.44
2023-12-30T20:21:21.807Z,100101.98
2023-12-30T20:23:49.586Z,100102.29
2023-12-30T20:26:17.272Z,100100.20
2023-12-30T20:28:45.012Z,100099.65
2023-12-30T20:31:12.849Z,100093.81
2023-12-30T20:33:40.587Z,100085.77
2023-12-30T20:36:09.373Z,100083.61
2023-12-30T20:38:40.338Z,100084.19
2023-12-30T20:41:07.993Z,100082.56
2023-12-30T20:43:35.690Z,100082.32
2023-12-30T20:46:08.830Z,100084.98
2023-12-30T20:48:39.775Z,100085.86
2023-12-30T20:51:09.042Z,100085.30
2023-12-30T20:53:36.565Z,100085.61
2023-12-30T20:56:04.498Z,100085.14
2023-12-30T20:58:32.104Z,100086.51
2023-12-30T21:01:00.029Z,100086.89
2023-12-30T21:03:30.205Z,100086.66
2023-12-30T21:05:58.173Z,100088.75
2023-12-30T21:08:25.733Z,100090.01
2023-12-30T21:10:53.342Z,100087.80
2023-12-30T21:13:21.197Z,100083.32
2023-12-30T21:15:49.513Z,100085.99
2023-12-30T21:18:17.158Z,100083.55
2023-12-30T21:20:44.806Z,100078.61
2023-12-30T21:23:12.342Z,100068.58
2023-12-30T21:25:40.052Z,100068.27
2023-12-30T21:28:08.135Z,100069.31
2023-12-30T21:30:35.811Z,100072.96
2023-12-30T21:33:03.803Z,100078.91
2023-12-30T21:35:31.464Z,100079.02
2023-12-30T21:37:59.059Z,100072.36
2023-12-30T21:40:28.408Z,100070.47
2023-12-30T21:42:56.007Z,100066.64
2023-12-30T21:45:23.546Z,100063.16
2023-12-30T21:47:51.508Z,100066.11
2023-12-30T21:50:19.213Z,100068.17
2023-12-30T21:52:47.487Z,100067.66
2023-12-30T21:55:15.091Z,100068.49
2023-12-30T21:57:42.691Z,100076.27
2023-12-30T22:00:12.231Z,100082.11
2023-12-30T22:02:40.327Z,100086.32
2023-12-30T22:05:08.919Z,100083.59
2023-12-30T22:07:36.525Z,100084.20
2023-12-30T22:10:04.489Z,100080.08
2023-12-30T22:12:33.617Z,100074.88
2023-12-30T22:15:01.226Z,100068.37
2023-12-30T22:17:29.106Z,100064.22
2023-12-30T22:19:57.645Z,100065.48
2023-12-30T22:22:25.253Z,100053.39
2023-12-30T22:24:52.963Z,100046.34
2023-12-30T22:27:23.550Z,100041.48
2023-12-30T22:29:51.067Z,100030.23
2023-12-30T22:32:18.709Z,100021.23
2023-12-30T22:34:46.342Z,100016.48
2023-12-30T22:37:14.016Z,100013.11
2023-12-30T22:39:41.591Z,100019.36
2023-12-30T22:42:09.122Z,100022.21
2023-12-30T22:44:38.746Z,100014.27
2023-12-30T22:47:06.983Z,100012.45
2023-12-30T22:49:34.600Z,100017.39
2023-12-30T22:52:02.210Z,100009.09
2023-12-30T22:54:30.061Z,100002.98
2023-12-30T22:56:57.649Z,99997.19
2023-12-30T22:59:25.190Z,99993.77
2023-12-30T23:01:52.769Z,99990.19
2023-12-30T23:04:20.356Z,99987.43
2023-12-30T23:06:49.036Z,99980.39
2023-12-30T23:09:16.922Z,99978.44
2023-12-30T23:11:44.528Z,99977.48
2023-12-30T23:14:12.061Z,99975.15
2023-12-30T23:16:39.737Z,99971.31
2023-12-30T23:19:08.113Z,99974.92
2023-12-30T23:21:35.883Z,99970.94
2023-12-30T23:24:05.255Z,99968.28
2023-12-30T23:26:32.790Z,99971.80
2023-12-30T23:29:00.339Z,99974.29
2023-12-30T23:31:27.956Z,99986.96
2023-12-30T23:33:55.561Z,99993.27
2023-12-30T23:36:23.299Z,99992.38
2023-12-30T23:38:50.937Z,99991.08
2023-12-30T23:41:18.526Z,99992.23
2023-12-30T23:43:46.178Z,99988.60
2023-12-30T23:46:14.014Z,99986.27
2023-12-30T23:48:41.675Z,99981.18
2023-12-30T23:51:09.222Z,99979.66
2023-12-30T23:53:37.411Z,99975.78
2023-12-30T23:56:05.405Z,99976.50
2023-12-30T23:58:33.121Z,99968.93
